createdAt,value
2016-08-01T10:16:19.623Z,26.3
2016-08-01T10:16:31.943Z,26.3
2016-08-01T10:16:43.188Z,26.3
2016-08-01T10:16:53.686Z,26.4
2016-08-01T10:17:04.164Z,26.3
2016-08-01T10:17:14.653Z,26.2
2016-08-01T10:17:25.131Z,26.4
2016-08-01T10:17:36.747Z,26.4
2016-08-01T10:33:11.280Z,26.7
2016-08-01T10:34:00.283Z,26.6
2016-08-01T10:34:11.008Z,26.5
2016-08-01T10:34:21.497Z,26.3
2016-08-01T10:34:58.312Z,26.4
2016-08-01T10:35:34.681Z,26.5
2016-08-01T10:35:46.943Z,26.6
2016-08-01T10:36:25.118Z,26.6
2016-08-01T10:36:37.399Z,26.6
2016-08-01T10:36:48.811Z,26.6
2016-08-01T10:36:59.282Z,26.6
2016-08-01T10:37:11.550Z,26.7
2016-08-01T10:37:22.751Z,26.8
2016-08-01T10:37:35.008Z,26.9
2016-08-01T10:37:47.311Z,27
2016-08-01T10:37:58.838Z,27.1
2016-08-01T16:16:12.714Z,24.5
2016-08-01T16:16:23.955Z,24.5
2016-08-01T16:16:34.463Z,24.5
2016-08-01T16:16:45.705Z,24.6
2016-08-01T16:17:10.984Z,24.6
2016-08-01T16:17:22.224Z,24.7
2016-08-01T16:17:33.462Z,24.7
2016-08-01T16:17:55.216Z,24.7
2016-08-01T16:18:06.803Z,24.7
2016-08-01T16:18:18.040Z,24.8
2016-08-01T16:18:29.287Z,24.8
2016-08-01T16:18:40.525Z,24.8
2016-08-01T16:18:51.767Z,24.9
2016-08-01T16:19:03.006Z,25
2016-08-01T16:19:14.250Z,25
2016-08-01T16:19:25.489Z,25
2016-08-01T16:19:36.731Z,25.1
2016-08-01T16:19:47.967Z,25.1
2016-08-01T16:19:59.209Z,25.1
2016-08-01T16:20:09.723Z,25.2
2016-08-01T16:20:20.965Z,25.3
2016-08-01T16:20:32.210Z,25.3
2016-08-01T16:20:43.450Z,25.3
2016-08-01T16:20:54.693Z,25.4
2016-08-01T16:21:05.939Z,25.4
2016-08-01T16:21:17.177Z,25.4
2016-08-01T16:21:28.414Z,25.6
2016-08-01T16:21:51.604Z,25.7
2016-08-01T16:22:02.849Z,25.7
2016-08-01T16:22:13.359Z,25.7
2016-08-01T16:22:24.603Z,25.8
2016-08-01T16:22:35.841Z,25.8
2016-08-01T16:22:47.085Z,25.9
2016-08-01T16:22:57.593Z,25.9
2016-08-01T16:23:08.835Z,26
2016-08-01T16:23:20.081Z,26.1
2016-08-01T16:23:31.332Z,26.1
2016-08-01T16:23:42.576Z,26.2
2016-08-01T16:23:53.815Z,26.3
2016-08-01T16:24:05.053Z,26.3
2016-08-01T16:24:16.500Z,26.2
2016-08-01T16:24:27.736Z,26.5
2016-08-01T16:24:38.982Z,26.5
2016-08-01T16:24:50.224Z,26.5
2016-08-01T16:25:01.465Z,26.6
2016-08-01T16:25:12.707Z,26.7
2016-08-01T16:25:23.954Z,26.7
2016-08-01T16:25:34.467Z,26.6
2016-08-01T16:25:45.707Z,26.7
2016-08-01T16:25:56.950Z,26.7
2016-08-01T16:26:08.188Z,26.7
2016-08-01T16:26:19.429Z,26.9
2016-08-01T16:26:30.676Z,26.9
2016-08-01T16:26:41.924Z,27
2016-08-01T16:26:53.166Z,27
2016-08-01T16:27:04.408Z,27.1
2016-08-01T16:27:15.650Z,27.1
2016-08-01T16:27:26.896Z,27.2
2016-08-01T16:27:37.414Z,27.2
2016-08-01T16:27:48.660Z,27.3
2016-08-01T16:27:59.904Z,27.4
2016-08-01T16:28:11.147Z,27.4
2016-08-01T16:28:22.394Z,27.5
2016-08-01T16:28:32.911Z,27.5
2016-08-01T16:28:44.148Z,27.5
2016-08-01T16:28:54.662Z,27.6
2016-08-01T16:29:05.904Z,27.6
2016-08-01T16:29:17.148Z,27.6
2016-08-01T16:29:28.386Z,27.7
2016-08-01T16:29:39.636Z,27.7
2016-08-01T16:29:50.882Z,27.7
2016-08-01T16:30:02.120Z,27.8
2016-08-01T16:30:13.364Z,27.8
2016-08-01T16:30:23.877Z,27.9
2016-08-01T16:30:35.118Z,27.9
2016-08-01T16:30:46.363Z,28
2016-08-01T16:30:56.920Z,28
2016-08-01T16:31:08.172Z,28
2016-08-01T16:31:19.417Z,28.1
2016-08-01T16:31:30.661Z,28.1
2016-08-01T16:31:41.900Z,28.2
2016-08-01T16:31:53.144Z,28.2
2016-08-01T16:32:04.387Z,28.4
2016-08-01T16:32:15.637Z,28.3
2016-08-01T16:32:26.880Z,28.3
2016-08-01T16:32:38.130Z,28.3
2016-08-01T16:32:48.661Z,28.4
2016-08-01T16:32:59.910Z,28.4
2016-08-01T16:33:11.153Z,28.4
2016-08-01T16:33:22.403Z,28.5
2016-08-01T16:33:33.651Z,28.6
2016-08-01T16:33:44.900Z,28.6
2016-08-01T16:33:55.408Z,28.6
2016-08-01T16:34:06.650Z,28.7
2016-08-01T16:34:17.890Z,28.7
2016-08-01T16:34:29.129Z,28.7
2016-08-01T16:34:40.369Z,28.8
2016-08-01T16:34:51.612Z,28.8
2016-08-01T16:35:02.864Z,28.8
2016-08-01T16:35:14.116Z,28.8
2016-08-01T16:35:25.363Z,28.9
2016-08-01T16:35:36.604Z,28.9
2016-08-01T16:35:47.845Z,28.9
2016-08-01T16:35:59.083Z,28.9
2016-08-01T16:36:10.324Z,29
2016-08-01T16:36:21.563Z,29
2016-08-01T16:36:32.809Z,29.1
2016-08-01T16:36:44.049Z,29.1
2016-08-01T16:37:06.792Z,29.2
2016-08-01T16:37:18.038Z,29.2
2016-08-01T16:37:29.282Z,29.3
2016-08-01T16:37:39.796Z,29.2
2016-08-01T16:37:51.040Z,29.3
2016-08-01T16:38:02.282Z,29.3
2016-08-01T16:38:13.522Z,29.4
2016-08-01T16:38:24.771Z,29.4
2016-08-01T16:38:36.012Z,29.4
2016-08-01T16:38:47.260Z,29.5
2016-08-01T16:38:58.496Z,29.4
2016-08-01T16:39:09.738Z,29.4
2016-08-01T16:39:20.983Z,29.5
2016-08-01T16:39:32.227Z,29.6
2016-08-01T16:39:42.737Z,29.6
2016-08-01T16:39:53.977Z,29.6
2016-08-01T16:40:05.220Z,29.6
2016-08-01T16:40:16.463Z,29.6
2016-08-01T16:40:28.775Z,29.6
2016-08-01T16:40:40.024Z,29.7
2016-08-01T16:40:50.532Z,29.8
2016-08-01T16:41:01.780Z,29.7
2016-08-01T16:41:13.021Z,29.7
2016-08-01T16:41:23.536Z,29.8
2016-08-01T16:41:34.787Z,29.9
2016-08-01T16:41:45.308Z,29.8
2016-08-01T16:41:56.545Z,29.9
2016-08-01T16:42:07.787Z,29.9
2016-08-01T16:42:19.034Z,29.9
2016-08-01T16:42:29.548Z,29.9
2016-08-01T16:42:40.799Z,29.9
2016-08-01T16:42:52.043Z,30
2016-08-01T16:43:03.292Z,29.9
2016-08-01T16:43:14.539Z,30
2016-08-01T16:43:25.783Z,30.1
2016-08-01T16:43:37.025Z,30
2016-08-01T16:43:48.271Z,30.1
2016-08-01T16:43:59.516Z,30.1
2016-08-01T16:44:10.757Z,30.1
2016-08-01T16:44:21.272Z,30.2
2016-08-01T16:44:32.513Z,30.2
2016-08-01T16:44:43.762Z,30.2
2016-08-01T16:44:55.003Z,30.2
2016-08-01T16:45:06.242Z,30.3
2016-08-01T16:45:17.485Z,30.2
2016-08-01T16:45:28.726Z,30.4
2016-08-01T16:45:39.980Z,30.3
2016-08-01T16:45:51.228Z,30.3
2016-08-01T16:46:02.470Z,30.4
2016-08-01T16:46:13.720Z,30.3
2016-08-01T16:46:24.231Z,30.3
2016-08-01T16:46:34.735Z,30.5
2016-08-01T16:46:45.979Z,30.4
2016-08-01T16:46:57.220Z,30.4
2016-08-01T16:47:08.462Z,30.5
2016-08-01T16:47:19.705Z,30.5
2016-08-01T16:47:30.952Z,30.5
2016-08-01T16:47:42.195Z,30.6
2016-08-01T16:47:53.440Z,30.6
2016-08-01T16:48:04.684Z,30.5
2016-08-01T16:48:15.926Z,30.6
2016-08-01T16:48:27.166Z,30.7
2016-08-01T16:48:38.419Z,30.6
2016-08-01T16:48:49.670Z,30.6
2016-08-01T16:49:00.185Z,30.8
2016-08-01T16:49:11.423Z,30.7
2016-08-01T16:49:22.669Z,30.7
2016-08-01T16:49:33.921Z,30.8
2016-08-01T16:49:45.167Z,30.7
2016-08-01T16:49:55.680Z,30.8
2016-08-01T16:50:06.924Z,30.8
2016-08-01T16:50:18.169Z,30.8
2016-08-01T16:50:29.413Z,30.8
2016-08-01T16:50:40.657Z,30.9
2016-08-01T16:50:51.903Z,30.9
2016-08-01T16:51:03.145Z,30.9
2016-08-01T16:51:14.388Z,30.9
2016-08-01T16:51:25.634Z,30.9
2016-08-01T16:51:36.874Z,30.9
2016-08-01T16:52:00.074Z,31
2016-08-01T16:52:11.317Z,31
2016-08-01T16:52:22.559Z,31
2016-08-01T16:52:33.806Z,31.1
2016-08-01T16:52:45.048Z,31.1
2016-08-01T16:52:56.300Z,31.1
2016-08-01T16:53:07.540Z,31.2
2016-08-01T16:53:18.787Z,31.2
2016-08-01T16:53:30.036Z,31.1
2016-08-01T16:53:40.608Z,31.1
2016-08-01T16:53:51.850Z,31.1
2016-08-01T16:54:02.365Z,31.1
2016-08-01T16:54:13.612Z,31.1
2016-08-01T16:54:24.857Z,31.2
2016-08-01T16:54:36.099Z,31.1
2016-08-01T16:54:47.338Z,31.1
2016-08-01T16:54:58.580Z,31.2
2016-08-01T16:55:09.825Z,31.3
2016-08-01T16:55:21.071Z,31.2
2016-08-01T16:55:32.317Z,31.3
2016-08-01T16:55:43.557Z,31.3
2016-08-01T16:55:54.805Z,31.2
2016-08-01T16:56:06.053Z,31.3
2016-08-01T16:56:16.569Z,31.3
2016-08-01T16:56:27.817Z,31.2
2016-08-01T16:56:39.061Z,31.3
2016-08-01T16:56:50.303Z,31.2
2016-08-01T16:57:01.552Z,31.3
2016-08-01T16:57:12.793Z,31.2
2016-08-01T16:57:24.040Z,31.3
2016-08-01T16:57:35.282Z,31.4
2016-08-01T16:57:46.525Z,31.4
2016-08-01T16:57:57.771Z,31.4
2016-08-01T16:58:09.013Z,31.4
2016-08-01T16:58:20.258Z,31.3
2016-08-01T16:58:31.501Z,31.4
2016-08-01T16:58:42.743Z,31.4
2016-08-01T16:58:53.986Z,31.4
2016-08-01T16:59:04.508Z,31.4
2016-08-01T16:59:15.750Z,31.5
2016-08-01T16:59:27.006Z,31.4
2016-08-01T16:59:38.249Z,31.4
2016-08-01T16:59:49.490Z,31.4
2016-08-01T17:00:00.734Z,31.5
2016-08-01T17:00:11.980Z,31.5
2016-08-01T17:00:23.219Z,31.5
2016-08-01T17:00:34.464Z,31.5
2016-08-01T17:00:45.708Z,31.5
2016-08-01T17:00:56.955Z,31.5
2016-08-01T17:01:08.197Z,31.6
2016-08-01T17:01:19.448Z,31.6
2016-08-01T17:01:30.693Z,31.6
2016-08-01T17:01:41.948Z,31.6
2016-08-01T17:01:53.190Z,31.6
2016-08-01T17:02:04.434Z,31.6
2016-08-01T17:02:15.681Z,31.6
2016-08-01T17:02:26.926Z,31.6
2016-08-01T17:02:37.441Z,31.6
2016-08-01T17:02:48.681Z,31.5
2016-08-01T17:02:59.919Z,31.6
2016-08-01T17:03:11.163Z,31.6
2016-08-01T17:03:22.409Z,31.7
2016-08-01T17:03:33.654Z,31.6
2016-08-01T17:03:44.173Z,31.6
2016-08-01T17:03:54.683Z,31.6
2016-08-01T17:04:05.935Z,31.7
2016-08-01T17:04:17.176Z,31.6
2016-08-01T17:04:28.424Z,31.6
2016-08-01T17:04:39.671Z,31.7
2016-08-01T17:04:50.918Z,31.7
2016-08-01T17:05:02.163Z,31.7
2016-08-01T17:05:13.407Z,31.7
2016-08-01T17:05:24.650Z,31.7
2016-08-01T17:05:35.894Z,31.6
2016-08-01T17:05:47.160Z,31.7
2016-08-01T17:05:58.408Z,31.6
2016-08-01T17:06:09.657Z,31.7
2016-08-01T17:06:20.169Z,31.7
2016-08-01T17:06:31.414Z,31.7
2016-08-01T17:06:42.705Z,31.6
2016-08-01T17:07:05.913Z,31.8
2016-08-01T17:07:17.155Z,31.6
2016-08-01T17:07:28.407Z,31.7
2016-08-01T17:07:39.649Z,31.7
2016-08-01T17:07:50.890Z,31.7
2016-08-01T17:08:02.159Z,31.7
2016-08-01T17:08:13.409Z,31.8
2016-08-01T17:08:24.668Z,31.8
2016-08-01T17:08:35.181Z,31.8
2016-08-01T17:08:46.432Z,31.8
2016-08-01T17:08:57.680Z,31.8
2016-08-01T17:09:08.919Z,31.8
2016-08-01T17:09:20.164Z,31.7
2016-08-01T17:09:31.406Z,31.7
2016-08-01T17:09:42.646Z,31.8
2016-08-01T17:09:53.894Z,31.7
2016-08-01T17:10:05.140Z,31.8
2016-08-01T17:10:16.390Z,31.8
2016-08-01T17:10:27.649Z,31.7
2016-08-01T17:10:38.900Z,31.8
2016-08-01T17:10:50.154Z,31.8
2016-08-01T17:11:01.399Z,31.8
2016-08-01T17:11:12.644Z,31.8
2016-08-01T17:11:23.160Z,31.7
2016-08-01T17:11:34.411Z,31.8
2016-08-01T17:11:45.653Z,31.9
2016-08-01T17:11:56.901Z,31.8
2016-08-01T17:12:08.147Z,31.9
2016-08-01T17:12:19.391Z,31.8
2016-08-01T17:12:30.635Z,31.9
2016-08-01T17:12:41.879Z,31.9
2016-08-01T17:12:53.122Z,31.8
2016-08-01T17:13:04.365Z,31.9
2016-08-01T17:13:14.883Z,31.9
2016-08-01T17:13:26.123Z,31.9
2016-08-01T17:13:37.367Z,31.9
2016-08-01T17:13:48.613Z,31.9
2016-08-01T17:13:59.854Z,31.8
2016-08-01T17:14:11.099Z,31.9
2016-08-01T17:14:22.339Z,31.9
2016-08-01T17:14:33.589Z,31.9
2016-08-01T17:14:44.830Z,31.9
2016-08-01T17:14:56.126Z,31.9
2016-08-01T17:15:07.378Z,31.9
2016-08-01T17:15:18.624Z,31.8
2016-08-01T17:15:29.876Z,31.9
2016-08-01T17:15:41.125Z,31.9
2016-08-01T17:15:51.635Z,31.9
2016-08-01T17:16:02.884Z,31.8
2016-08-01T17:16:14.129Z,31.9
2016-08-01T17:16:25.371Z,31.9
2016-08-01T17:16:36.625Z,31.8
2016-08-01T17:16:47.863Z,31.9
2016-08-01T17:16:59.108Z,31.9
2016-08-01T17:17:10.357Z,31.8
2016-08-01T17:17:21.597Z,31.9
2016-08-01T17:17:32.840Z,31.9
2016-08-01T17:17:44.090Z,31.9
2016-08-01T17:17:55.326Z,31.9
2016-08-01T17:18:06.574Z,32
2016-08-01T17:18:17.820Z,32
2016-08-01T17:18:29.066Z,32
2016-08-01T17:18:40.312Z,31.9
2016-08-01T17:18:51.560Z,32
2016-08-01T17:19:02.804Z,32
2016-08-01T17:19:13.320Z,32
2016-08-01T17:19:24.562Z,32
2016-08-01T17:19:35.807Z,32
2016-08-01T17:19:46.337Z,32
2016-08-01T17:19:57.584Z,32
2016-08-01T17:20:08.820Z,32
2016-08-01T17:20:20.072Z,32
2016-08-01T17:20:31.321Z,32
2016-08-01T17:20:42.572Z,32
2016-08-01T17:20:53.819Z,32
2016-08-01T17:21:05.061Z,32
2016-08-01T17:21:16.306Z,32
2016-08-01T17:21:27.601Z,31.9
2016-08-01T17:21:38.843Z,32
2016-08-01T17:21:50.097Z,32
2016-08-01T17:22:12.844Z,32
2016-08-01T17:22:24.090Z,31.9
2016-08-01T17:22:35.332Z,32
2016-08-01T17:22:46.575Z,32
2016-08-01T17:22:57.819Z,32.1
2016-08-01T17:23:09.056Z,32.1
2016-08-01T17:23:20.302Z,32
2016-08-01T17:23:31.546Z,32.1
2016-08-01T17:23:42.787Z,32.1
2016-08-01T17:23:53.295Z,32.1
2016-08-01T17:24:04.535Z,32.1
2016-08-01T17:24:15.779Z,32.1
2016-08-01T17:24:27.026Z,32.1
2016-08-01T17:24:38.271Z,32.1
2016-08-01T17:24:49.516Z,32.1
2016-08-01T17:25:00.029Z,32
2016-08-01T17:25:11.273Z,32.1
2016-08-01T17:25:21.786Z,32.1
2016-08-01T17:25:33.026Z,32.1
2016-08-01T17:25:44.274Z,32.1
2016-08-01T17:25:54.786Z,32.1
2016-08-01T17:26:06.038Z,32.1
2016-08-01T17:26:17.275Z,32.1
2016-08-01T17:26:28.520Z,32
2016-08-01T17:26:39.762Z,32.1
2016-08-01T17:26:51.003Z,32.1
2016-08-01T17:27:02.245Z,32
2016-08-01T17:27:13.488Z,32
2016-08-01T17:27:24.736Z,32.1
2016-08-01T17:27:35.985Z,32.1
2016-08-01T17:27:46.490Z,32.1
2016-08-01T17:27:57.739Z,32.1
2016-08-01T17:28:09.028Z,32
2016-08-01T17:28:20.267Z,32
2016-08-01T17:28:31.513Z,32.1
2016-08-01T17:28:42.757Z,32.1
2016-08-01T17:28:53.271Z,32
2016-08-01T17:29:03.784Z,32.1
2016-08-01T17:29:15.030Z,32.1
2016-08-01T17:29:26.276Z,32.1
2016-08-01T17:29:36.778Z,32.1
2016-08-01T17:29:48.024Z,32
2016-08-01T17:29:59.270Z,32.1
2016-08-01T17:30:10.516Z,32.1
2016-08-01T17:30:21.757Z,32
2016-08-01T17:30:32.269Z,32.1
2016-08-01T17:30:43.511Z,32
2016-08-01T17:30:54.752Z,32.1
2016-08-01T17:31:05.995Z,32
2016-08-01T17:31:17.235Z,32
2016-08-01T17:31:28.485Z,32.1
2016-08-01T17:31:38.995Z,32.1
2016-08-01T17:31:50.241Z,32.1
2016-08-01T17:32:01.490Z,32.1
2016-08-01T17:32:12.735Z,32.1
2016-08-01T17:32:23.980Z,32.1
2016-08-01T17:32:35.221Z,32.1
2016-08-01T17:32:46.460Z,32.1
2016-08-01T17:32:57.703Z,32
2016-08-01T17:33:08.950Z,32.1
2016-08-01T17:33:20.202Z,32.1
2016-08-01T17:33:31.443Z,32.1
2016-08-01T17:33:42.684Z,32
2016-08-01T17:33:53.929Z,32
2016-08-01T17:34:05.170Z,32.1
2016-08-01T17:34:16.418Z,32.1
2016-08-01T17:34:27.665Z,32.1
2016-08-01T17:34:38.905Z,32.1
2016-08-01T17:34:50.147Z,32.1
2016-08-01T17:35:01.393Z,32.1
2016-08-01T17:35:12.632Z,32.1
2016-08-01T17:35:23.879Z,32
2016-08-01T17:35:35.128Z,32
2016-08-01T17:35:46.371Z,32
2016-08-01T17:35:56.895Z,32
2016-08-01T17:36:08.140Z,32
2016-08-01T17:36:18.660Z,32
2016-08-01T17:36:29.899Z,32
2016-08-01T17:36:41.139Z,32
2016-08-01T17:36:52.385Z,32
2016-08-01T17:37:15.583Z,32
2016-08-01T17:37:26.824Z,32.1
2016-08-01T17:37:38.074Z,31.9
2016-08-01T17:37:49.317Z,32.1
2016-08-01T17:38:00.562Z,32
2016-08-01T17:38:11.806Z,32
2016-08-01T17:38:23.050Z,32
2016-08-01T17:38:34.292Z,32
2016-08-01T17:38:45.539Z,32
2016-08-01T17:38:56.786Z,32
2016-08-01T17:39:08.089Z,32
2016-08-01T17:39:19.332Z,32
2016-08-01T17:39:30.577Z,32
2016-08-01T17:39:41.815Z,31.9
2016-08-01T17:39:53.061Z,31.9
2016-08-01T17:40:04.303Z,32
2016-08-01T17:40:15.538Z,32
2016-08-01T17:40:26.786Z,32
2016-08-01T17:40:38.030Z,31.9
2016-08-01T17:40:49.275Z,32
2016-08-01T17:41:00.523Z,32.1
2016-08-01T17:41:11.773Z,32
2016-08-01T17:41:23.026Z,32
2016-08-01T17:41:34.266Z,32
2016-08-01T17:41:45.514Z,32
2016-08-01T17:41:56.759Z,32
2016-08-01T17:42:08.002Z,32
2016-08-01T17:42:19.248Z,32
2016-08-01T17:42:29.756Z,32
2016-08-01T17:42:41.005Z,32
2016-08-01T17:42:52.246Z,32
2016-08-01T17:43:02.753Z,32
2016-08-01T17:43:13.996Z,32
2016-08-01T17:43:25.241Z,32
2016-08-01T17:43:36.483Z,32
2016-08-01T17:43:47.732Z,32
2016-08-01T17:43:58.978Z,32
2016-08-01T17:44:10.220Z,32
2016-08-01T17:44:21.463Z,32
2016-08-01T17:44:32.706Z,32
2016-08-01T17:44:43.947Z,32
2016-08-01T17:44:55.198Z,31.9
2016-08-01T17:45:06.442Z,32
2016-08-01T17:45:17.691Z,31.9
2016-08-01T17:45:28.944Z,31.9
2016-08-01T17:45:40.190Z,32
2016-08-01T17:45:51.444Z,32
2016-08-01T17:46:02.680Z,32
2016-08-01T17:46:13.918Z,32
2016-08-01T17:46:25.162Z,32
2016-08-01T17:46:36.402Z,32
2016-08-01T17:46:47.642Z,32
2016-08-01T17:46:58.930Z,32
2016-08-01T17:47:10.180Z,31.9
2016-08-01T17:47:21.485Z,32
2016-08-01T17:47:32.731Z,32
2016-08-01T17:47:43.995Z,32
2016-08-01T17:47:54.513Z,32
2016-08-01T17:48:05.759Z,32
2016-08-01T17:48:17.009Z,32
2016-08-01T17:48:28.252Z,32
2016-08-01T17:48:39.514Z,32
2016-08-01T17:48:50.757Z,32
2016-08-01T17:49:03.059Z,32
2016-08-01T17:49:14.300Z,32
2016-08-01T17:49:25.546Z,32
2016-08-01T17:49:36.790Z,32
2016-08-01T17:49:48.043Z,32
2016-08-01T17:49:58.557Z,32
2016-08-01T17:50:09.800Z,32
2016-08-01T17:50:21.051Z,31.9
2016-08-01T17:50:32.341Z,32
2016-08-01T17:50:43.582Z,32
2016-08-01T17:50:54.828Z,32
2016-08-01T17:51:06.070Z,31.9
2016-08-01T17:51:17.321Z,32
2016-08-01T17:51:27.834Z,32
2016-08-01T17:51:40.137Z,31.9
2016-08-01T17:51:51.390Z,32
2016-08-01T17:52:14.377Z,32
2016-08-01T17:52:24.899Z,32
2016-08-01T17:52:36.143Z,32
2016-08-01T17:52:47.389Z,32
2016-08-01T17:52:58.641Z,31.9
2016-08-01T17:53:09.152Z,32
2016-08-01T17:53:20.395Z,31.9
2016-08-01T17:53:31.634Z,32
2016-08-01T17:53:42.888Z,32
2016-08-01T17:53:54.131Z,32
2016-08-01T17:54:05.372Z,32
2016-08-01T17:54:16.617Z,32
2016-08-01T17:54:27.127Z,31.9
2016-08-01T17:54:38.382Z,32
2016-08-01T17:54:49.618Z,31.9
2016-08-01T17:55:00.133Z,32
2016-08-01T17:55:10.647Z,32
2016-08-01T17:55:21.889Z,31.9
2016-08-01T17:55:33.130Z,32
2016-08-01T17:55:44.375Z,32
2016-08-01T17:55:54.889Z,32
2016-08-01T17:56:06.131Z,32
2016-08-01T17:56:16.652Z,32
2016-08-01T17:56:27.896Z,31.9
2016-08-01T17:56:39.134Z,32
2016-08-01T17:56:50.376Z,32
2016-08-01T17:57:01.616Z,32
2016-08-01T17:57:12.866Z,32
2016-08-01T17:57:23.370Z,31.9
2016-08-01T17:57:34.614Z,32
2016-08-01T17:57:45.858Z,32
2016-08-01T17:57:57.101Z,32
2016-08-01T17:58:08.347Z,31.9
2016-08-01T17:58:19.591Z,32
2016-08-01T17:58:30.835Z,32
2016-08-01T17:58:42.080Z,32
2016-08-01T17:58:53.323Z,32
2016-08-01T17:59:04.565Z,31.9
2016-08-01T17:59:15.812Z,32
2016-08-01T17:59:26.323Z,32
2016-08-01T17:59:37.575Z,31.9
2016-08-01T17:59:48.093Z,32
2016-08-01T17:59:59.339Z,32
2016-08-01T18:00:10.577Z,32
2016-08-01T18:00:21.819Z,31.9
2016-08-01T18:00:33.062Z,32
2016-08-01T18:00:44.307Z,32
2016-08-01T18:00:55.550Z,31.9
2016-08-01T18:01:06.801Z,32
2016-08-01T18:01:18.045Z,32
2016-08-01T18:01:29.284Z,31.9
2016-08-01T18:01:40.579Z,32
2016-08-01T18:01:51.822Z,32
2016-08-01T18:02:03.072Z,32
2016-08-01T18:02:14.316Z,31.8
2016-08-01T18:02:25.558Z,31.9
2016-08-01T18:02:36.802Z,32
2016-08-01T18:02:48.045Z,31.9
2016-08-01T18:02:59.291Z,31.9
2016-08-01T18:03:10.533Z,32
2016-08-01T18:03:21.058Z,32
2016-08-01T18:03:32.301Z,31.9
2016-08-01T18:03:43.543Z,31.9
2016-08-01T18:03:54.783Z,32
2016-08-01T18:04:06.025Z,32
2016-08-01T18:04:17.275Z,32
2016-08-01T18:04:27.792Z,32
2016-08-01T18:04:39.033Z,32
2016-08-01T18:04:50.271Z,31.9
2016-08-01T18:05:01.535Z,32
2016-08-01T18:05:12.774Z,31.9
2016-08-01T18:05:24.017Z,31.8
2016-08-01T18:05:35.266Z,32
2016-08-01T18:05:46.508Z,31.8
2016-08-01T18:05:57.022Z,31.9
2016-08-01T18:06:08.262Z,32
2016-08-01T18:06:19.517Z,31.9
2016-08-01T18:06:30.773Z,32
2016-08-01T18:06:42.039Z,31.9
2016-08-01T18:06:53.281Z,32
2016-08-01T18:07:04.524Z,31.9
2016-08-01T18:07:27.002Z,31.9
2016-08-01T18:07:38.243Z,31.8
2016-08-01T18:07:49.488Z,31.9
2016-08-01T18:08:00.728Z,31.9
2016-08-01T18:08:11.982Z,31.9
2016-08-01T18:08:23.226Z,31.9
2016-08-01T18:08:34.466Z,31.9
2016-08-01T18:08:45.713Z,31.9
2016-08-01T18:08:56.952Z,31.9
2016-08-01T18:09:08.198Z,31.9
2016-08-01T18:09:18.703Z,31.8
2016-08-01T18:09:31.012Z,31.9
2016-08-01T18:09:42.261Z,31.9
2016-08-01T18:09:53.507Z,31.9
2016-08-01T18:10:04.748Z,31.8
2016-08-01T18:10:15.991Z,31.9
2016-08-01T18:10:27.244Z,31.8
2016-08-01T18:10:38.483Z,31.9
2016-08-01T18:10:49.729Z,31.8
2016-08-01T18:11:00.243Z,31.9
2016-08-01T18:11:10.758Z,31.9
2016-08-01T18:11:22.002Z,31.9
2016-08-01T18:11:33.299Z,31.8
2016-08-01T18:11:44.540Z,31.9
2016-08-01T18:11:55.784Z,31.8
2016-08-01T18:12:07.045Z,31.9
2016-08-01T18:12:18.286Z,31.9
2016-08-01T18:12:29.528Z,31.9
2016-08-01T18:12:40.770Z,31.8
2016-08-01T18:12:52.016Z,31.8
2016-08-01T18:13:03.262Z,31.9
2016-08-01T18:13:13.786Z,31.9
2016-08-01T18:13:24.307Z,31.9
2016-08-01T18:13:35.549Z,31.9
2016-08-01T18:13:46.794Z,31.8
2016-08-01T18:13:58.036Z,31.9
2016-08-01T18:14:09.283Z,31.9
2016-08-01T18:14:20.524Z,31.9
2016-08-01T18:14:31.036Z,31.9
2016-08-01T18:14:41.570Z,31.8
2016-08-01T18:14:52.806Z,31.8
2016-08-01T18:15:04.063Z,31.9
2016-08-01T18:15:14.570Z,31.8
2016-08-01T18:15:25.083Z,31.9
2016-08-01T18:15:36.329Z,31.9
2016-08-01T18:15:47.576Z,31.8
2016-08-01T18:15:58.091Z,31.8
2016-08-01T18:16:09.382Z,31.8
2016-08-01T18:16:20.630Z,31.8
2016-08-01T18:16:31.875Z,31.9
2016-08-01T18:16:43.118Z,31.9
2016-08-01T18:16:53.690Z,31.9
2016-08-01T18:17:04.939Z,31.8
2016-08-01T18:17:16.175Z,31.8
2016-08-01T18:17:27.417Z,31.8
2016-08-01T18:17:38.657Z,31.8
2016-08-01T18:17:49.901Z,31.8
2016-08-01T18:18:01.142Z,31.9
2016-08-01T18:18:12.388Z,31.8
2016-08-01T18:18:23.639Z,31.8
2016-08-01T18:18:34.158Z,31.9
2016-08-01T18:18:45.401Z,31.9
2016-08-01T18:18:56.645Z,31.8
2016-08-01T18:19:07.886Z,31.8
2016-08-01T18:19:19.136Z,31.8
2016-08-01T18:19:30.379Z,31.8
2016-08-01T18:19:41.627Z,31.8
2016-08-01T18:19:52.865Z,31.8
2016-08-01T18:20:05.176Z,31.8
2016-08-01T18:20:16.421Z,31.8
2016-08-01T18:20:27.666Z,31.9
2016-08-01T18:20:38.912Z,31.9
2016-08-01T18:20:50.156Z,31.8
2016-08-01T18:21:01.396Z,31.9
2016-08-01T18:21:12.642Z,31.8
2016-08-01T18:21:23.883Z,31.8
2016-08-01T18:21:34.398Z,31.8
2016-08-01T18:21:45.636Z,31.8
2016-08-01T18:21:56.879Z,31.8
2016-08-01T18:22:07.388Z,31.9
2016-08-01T18:22:30.641Z,31.8
2016-08-01T18:22:41.932Z,31.9
2016-08-01T18:22:53.173Z,31.8
2016-08-01T18:23:04.419Z,31.7
2016-08-01T18:23:15.661Z,31.8
2016-08-01T18:23:26.903Z,31.8
2016-08-01T18:23:38.147Z,31.8
2016-08-01T18:23:49.391Z,31.8
2016-08-01T18:24:00.631Z,31.8
2016-08-01T18:24:11.871Z,31.8
2016-08-01T18:24:23.120Z,31.8
2016-08-01T18:24:34.368Z,31.8
2016-08-01T18:24:45.608Z,31.8
2016-08-01T18:24:56.853Z,31.8
2016-08-01T18:25:08.094Z,31.8
2016-08-01T18:25:19.345Z,31.7
2016-08-01T18:25:29.860Z,31.8
2016-08-01T18:25:41.103Z,31.8
2016-08-01T18:25:52.351Z,31.8
2016-08-01T18:26:03.601Z,31.7
2016-08-01T18:26:14.893Z,31.8
2016-08-01T18:26:26.143Z,31.8
2016-08-01T18:26:37.383Z,31.8
2016-08-01T18:26:48.638Z,31.7
2016-08-01T18:26:59.879Z,31.8
2016-08-01T18:27:11.131Z,31.7
2016-08-01T18:27:22.381Z,31.7
2016-08-01T18:27:33.625Z,31.7
2016-08-01T18:27:44.867Z,31.8
2016-08-01T18:27:56.109Z,31.7
2016-08-01T18:28:06.624Z,31.7
2016-08-01T18:28:17.863Z,31.8
2016-08-01T18:28:29.111Z,31.8
2016-08-01T18:28:40.357Z,31.8
2016-08-01T18:28:51.602Z,31.7
2016-08-01T18:29:02.848Z,31.8
2016-08-01T18:29:14.090Z,31.8
2016-08-01T18:29:25.332Z,31.8
2016-08-01T18:29:36.572Z,31.7
2016-08-01T18:29:47.817Z,31.8
2016-08-01T18:29:59.062Z,31.7
2016-08-01T18:30:09.577Z,31.8
2016-08-01T18:30:20.818Z,31.7
2016-08-01T18:30:32.059Z,31.8
2016-08-01T18:30:43.302Z,31.8
2016-08-01T18:30:54.551Z,31.8
2016-08-01T18:31:05.795Z,31.7
2016-08-01T18:31:17.036Z,31.7
2016-08-01T18:31:28.273Z,31.8
2016-08-01T18:31:39.524Z,31.7
2016-08-01T18:31:50.771Z,31.7
2016-08-01T18:32:02.013Z,31.8
2016-08-01T18:32:13.254Z,31.7
2016-08-01T18:32:24.503Z,31.8
2016-08-01T18:32:35.743Z,31.7
2016-08-01T18:32:46.986Z,31.8
2016-08-01T18:32:58.229Z,31.6
2016-08-01T18:33:09.477Z,31.7
2016-08-01T18:33:20.720Z,31.8
2016-08-01T18:33:31.232Z,31.7
2016-08-01T18:33:42.481Z,31.7
2016-08-01T18:33:53.721Z,31.7
2016-08-01T18:34:04.963Z,31.7
2016-08-01T18:34:16.207Z,31.8
2016-08-01T18:34:27.451Z,31.7
2016-08-01T18:34:37.955Z,31.7
2016-08-01T18:34:49.244Z,31.7
2016-08-01T18:35:00.485Z,31.7
2016-08-01T18:35:11.731Z,31.7
2016-08-01T18:35:22.244Z,31.7
2016-08-01T18:35:33.498Z,31.7
2016-08-01T18:35:44.061Z,31.7
2016-08-01T18:35:55.313Z,31.7
2016-08-01T18:36:05.834Z,31.6
2016-08-01T18:36:17.066Z,31.7
2016-08-01T18:36:28.316Z,31.7
2016-08-01T18:36:39.564Z,31.6
2016-08-01T18:36:50.806Z,31.7
2016-08-01T18:37:02.052Z,31.7
2016-08-01T18:37:13.294Z,31.7
2016-08-01T18:37:35.302Z,31.7
2016-08-01T18:37:46.554Z,31.6
2016-08-01T18:37:57.797Z,31.7
2016-08-01T18:38:09.046Z,31.7
2016-08-01T18:38:20.283Z,31.7
2016-08-01T18:38:31.523Z,31.6
2016-08-01T18:38:42.767Z,31.7
2016-08-01T18:38:54.009Z,31.7
2016-08-01T18:39:05.247Z,31.7
2016-08-01T18:39:16.489Z,31.6
2016-08-01T18:39:27.003Z,31.6
2016-08-01T18:39:38.245Z,31.6
2016-08-01T18:39:49.494Z,31.7
2016-08-01T18:40:00.737Z,31.6
2016-08-01T18:40:11.977Z,31.7
2016-08-01T18:40:23.222Z,31.7
2016-08-01T18:40:34.464Z,31.6
2016-08-01T18:40:45.709Z,31.7
2016-08-01T18:40:56.954Z,31.6
2016-08-01T18:41:08.212Z,31.7
2016-08-01T18:41:19.469Z,31.6
2016-08-01T18:41:30.711Z,31.6
2016-08-01T18:41:41.951Z,31.7
2016-08-01T18:41:53.192Z,31.7
2016-08-01T18:42:04.440Z,31.7
2016-08-01T18:42:15.682Z,31.7
2016-08-01T18:42:26.194Z,31.7
2016-08-01T18:42:37.435Z,31.7
2016-08-01T18:42:48.679Z,31.7
2016-08-01T18:42:59.926Z,31.7
2016-08-01T18:43:11.162Z,31.7
2016-08-01T18:43:22.406Z,31.7
2016-08-01T18:43:33.654Z,31.7
2016-08-01T18:43:45.105Z,31.7
2016-08-01T18:43:56.350Z,31.7
2016-08-01T18:44:06.859Z,31.7
2016-08-01T18:44:17.474Z,31.6
2016-08-01T18:44:28.719Z,31.7
2016-08-01T18:44:39.965Z,31.7
2016-08-01T18:44:51.208Z,31.7